| time (UTC) | temp F | wind direction | speed MPH | gust MPH | rain 1hr in | rain 24hr in | rain mn in | humidity % | barometer mb |
| 20260508033319 | 59 | 9 | 0.0 | 0.0 | 0.00 | 0.00 | 0.00 | 69 | |
| 20260508032920 | 59 | 9 | 0.0 | 0.0 | 0.00 | 0.00 | 0.00 | 69 | |
| 20260508032119 | 59 | 9 | 0.0 | 0.0 | 0.00 | 0.00 | 0.00 | 69 | |
| 20260508031519 | 59 | 9 | 0.0 | 0.0 | 0.00 | 0.00 | 0.00 | 69 | |
| 20260508030919 | 59 | 9 | 0.0 | 0.0 | 0.00 | 0.00 | 0.00 | 69 | |
| 20260508030319 | 59 | 9 | 0.0 | 0.0 | 0.00 | 0.00 | 0.00 | 68 | |
| 20260508025719 | 59 | 9 | 0.0 | 0.0 | 0.00 | 0.00 | 0.00 | 68 | |
| 20260508025119 | 59 | 9 | 0.0 | 0.0 | 0.00 | 0.00 | 0.00 | 68 | |
| 20260508024920 | 59 | 9 | 0.0 | 0.0 | 0.00 | 0.00 | 0.00 | 68 | |
| 20260508024519 | 59 | 9 | 0.0 | 0.0 | 0.00 | 0.00 | 0.00 | 68 | |
| 20260508023919 | 59 | 9 | 0.0 | 0.0 | 0.00 | 0.00 | 0.00 | 68 | |
| 20260508023319 | 59 | 9 | 0.0 | 0.0 | 0.00 | 0.00 | 0.00 | 68 | |
| 20260508022920 | 59 | 9 | 0.0 | 0.0 | 0.00 | 0.00 | 0.00 | 68 | |
| 20260508022719 | 60 | 9 | 0.0 | 0.0 | 0.00 | 0.00 | 0.00 | 68 | |
| 20260508022119 | 59 | 9 | 0.0 | 0.0 | 0.00 | 0.00 | 0.00 | 67 | |
| 20260508021519 | 60 | 9 | 0.0 | 0.0 | 0.00 | 0.00 | 0.00 | 67 | |
| 20260508020919 | 60 | 9 | 0.0 | 0.0 | 0.00 | 0.00 | 0.00 | 67 | |
| 20260508020319 | 60 | 9 | 0.0 | 0.0 | 0.00 | 0.00 | 0.00 | 67 | |
| 20260508015719 | 60 | 9 | 0.0 | 0.0 | 0.00 | 0.00 | 0.00 | 67 | |
| 20260508015119 | 60 | 9 | 0.0 | 0.0 | 0.00 | 0.00 | 0.00 | 67 | |
| 20260508014933 | 60 | 9 | 0.0 | 0.0 | 0.00 | 0.00 | 0.00 | 67 | |
| 20260508014519 | 60 | 9 | 0.0 | 0.0 | 0.00 | 0.00 | 0.00 | 66 | |
| 20260508013919 | 60 | 9 | 0.0 | 0.0 | 0.00 | 0.00 | 0.00 | 66 | |
| 20260508013319 | 60 | 9 | 0.0 | 0.0 | 0.00 | 0.00 | 0.00 | 67 | |
| 20260508012920 | 61 | 9 | 0.0 | 0.0 | 0.00 | 0.00 | 0.00 | 67 | |
| 20260508012719 | 61 | 9 | 0.0 | 0.0 | 0.00 | 0.00 | 0.00 | 67 | |
| 20260508012119 | 61 | 9 | 0.0 | 0.0 | 0.00 | 0.00 | 0.00 | 66 | |
| 20260508011519 | 61 | 9 | 0.0 | 0.0 | 0.00 | 0.00 | 0.00 | 66 | |
| 20260508010919 | 61 | 9 | 0.0 | 0.0 | 0.00 | 0.00 | 0.00 | 66 | |
| 20260508010319 | 61 | 9 | 0.0 | 0.0 | 0.00 | 0.00 | 0.00 | 65 | |
| 20260508005719 | 61 | 9 | 0.0 | 0.0 | 0.00 | 0.00 | 0.00 | 64 | |
| 20260508005119 | 61 | 9 | 0.0 | 0.0 | 0.00 | 0.00 | 0.00 | 64 | |
| 20260508004920 | 61 | 9 | 0.0 | 0.0 | 0.00 | 0.00 | 0.00 | 64 | |
| 20260508004519 | 61 | 9 | 0.0 | 0.0 | 0.00 | 0.00 | 0.00 | 65 | |
| 20260508003919 | 61 | 9 | 0.0 | 0.0 | 0.00 | 0.00 | 0.00 | 65 | |
| 20260508003319 | 61 | 9 | 0.0 | 0.0 | 0.00 | 0.00 | 0.00 | 65 | |
| 20260508002920 | 61 | 9 | 0.0 | 0.0 | 0.00 | 0.00 | 0.00 | 65 | |
| 20260508002719 | 61 | 9 | 0.0 | 0.0 | 0.00 | 0.00 | 0.00 | 64 | |
| 20260508002119 | 61 | 9 | 0.0 | 0.0 | 0.00 | 0.00 | 0.00 | 65 | |
| 20260508001519 | 61 | 9 | 0.0 | 0.0 | 0.00 | 0.00 | 0.00 | 64 | |
| 20260508000919 | 61 | 9 | 0.0 | 0.0 | 0.00 | 0.00 | 0.00 | 64 | |
| 20260508000320 | 61 | 9 | 0.0 | 0.0 | 0.00 | 0.00 | 0.00 | 64 | |
| 20260507235719 | 61 | 9 | 0.0 | 0.0 | 0.00 | 0.00 | 0.00 | 64 | |
| 20260507235119 | 62 | 9 | 0.0 | 0.0 | 0.00 | 0.00 | 0.00 | 65 | |
| 20260507234920 | 61 | 9 | 0.0 | 0.0 | 0.00 | 0.00 | 0.00 | 65 | |
| 20260507234519 | 62 | 9 | 0.0 | 0.0 | 0.00 | 0.00 | 0.00 | 65 | |
| 20260507233919 | 62 | 9 | 0.0 | 0.0 | 0.00 | 0.00 | 0.00 | 65 | |
| 20260507233319 | 62 | 9 | 0.0 | 0.0 | 0.00 | 0.00 | 0.00 | 64 | |
| 20260507232920 | 62 | 9 | 0.0 | 0.0 | 0.00 | 0.00 | 0.00 | 64 | |
| 20260507232719 | 62 | 9 | 0.0 | 0.0 | 0.00 | 0.00 | 0.00 | 64 | |
| 20260507232119 | 62 | 9 | 0.0 | 0.0 | 0.00 | 0.00 | 0.00 | 64 | |
| 20260507231519 | 62 | 9 | 0.0 | 0.0 | 0.00 | 0.00 | 0.00 | 64 | |
| 20260507230919 | 62 | 9 | 0.0 | 0.0 | 0.00 | 0.00 | 0.00 | 64 | |
| 20260507230319 | 62 | 9 | 0.0 | 0.0 | 0.00 | 0.00 | 0.00 | 63 | |
| 20260507225719 | 62 | 9 | 0.0 | 0.0 | 0.00 | 0.00 | 0.00 | 63 | |
| 20260507225119 | 62 | 9 | 0.0 | 0.0 | 0.00 | 0.00 | 0.00 | 63 | |
| 20260507224519 | 62 | 9 | 0.0 | 0.0 | 0.00 | 0.00 | 0.00 | 62 | |
| 20260507223919 | 62 | 9 | 0.0 | 0.0 | 0.00 | 0.00 | 0.00 | 62 | |
| 20260507223319 | 62 | 9 | 0.0 | 0.0 | 0.00 | 0.00 | 0.00 | 62 | |
| 20260507222921 | 62 | 9 | 0.0 | 0.0 | 0.00 | 0.00 | 0.00 | 61 | |
| 20260507222719 | 63 | 9 | 0.0 | 0.0 | 0.00 | 0.00 | 0.00 | 61 | |
| 20260507222119 | 63 | 9 | 0.0 | 0.0 | 0.00 | 0.00 | 0.00 | 60 | |
| 20260507221520 | 63 | 9 | 0.0 | 0.0 | 0.00 | 0.00 | 0.00 | 60 | |
| 20260507220920 | 63 | 9 | 0.0 | 5.0 | 0.00 | 0.00 | 0.00 | 58 | |
| 20260507220320 | 63 | 32 | 0.0 | 3.0 | 0.00 | 0.00 | 0.00 | 59 | |
| 20260507215720 | 63 | 7 | 0.0 | 4.0 | 0.00 | 0.00 | 0.00 | 58 | |
| 20260507215120 | 63 | 73 | 0.0 | 6.0 | 0.00 | 0.00 | 0.00 | 57 | |
| 20260507214921 | 63 | 140 | 5.0 | 6.0 | 0.00 | 0.00 | 0.00 | 57 | |
| 20260507214520 | 63 | 75 | 0.0 | 7.0 | 0.00 | 0.00 | 0.00 | 57 | |
| 20260507213920 | 63 | 43 | 0.0 | 4.0 | 0.00 | 0.00 | 0.00 | 57 | |
| 20260507213320 | 63 | 139 | 0.0 | 7.0 | 0.00 | 0.00 | 0.00 | 57 | |
| 20260507212921 | 63 | 30 | 1.0 | 5.0 | 0.00 | 0.00 | 0.00 | 57 | |
| 20260507212720 | 63 | 5 | 0.0 | 5.0 | 0.00 | 0.00 | 0.00 | 57 | |
| 20260507212120 | 63 | 21 | 0.0 | 5.0 | 0.00 | 0.00 | 0.00 | 58 | |
| 20260507211520 | 63 | 352 | 4.0 | 7.0 | 0.00 | 0.00 | 0.00 | 56 | |
| 20260507210920 | 63 | 28 | 0.0 | 0.0 | 0.00 | 0.00 | 0.00 | 57 | |
| 20260507210320 | 64 | 28 | 0.0 | 0.0 | 0.00 | 0.00 | 0.00 | 57 | |
| 20260507205720 | 64 | 28 | 0.0 | 3.0 | 0.00 | 0.00 | 0.00 | 57 | |
| 20260507205120 | 64 | 135 | 0.0 | 0.0 | 0.00 | 0.00 | 0.00 | 57 | |
| 20260507204921 | 64 | 135 | 0.0 | 3.0 | 0.00 | 0.00 | 0.00 | 57 | |
| 20260507204520 | 64 | 135 | 0.0 | 3.0 | 0.00 | 0.00 | 0.00 | 55 | |
| 20260507203920 | 64 | 75 | 0.0 | 5.0 | 0.00 | 0.00 | 0.00 | 55 | |
| 20260507203320 | 64 | 68 | 0.0 | 5.0 | 0.00 | 0.00 | 0.00 | 55 | |
| 20260507202720 | 64 | 60 | 4.0 | 7.0 | 0.00 | 0.00 | 0.00 | 54 | |
| 20260507202120 | 64 | 88 | 0.0 | 8.0 | 0.00 | 0.00 | 0.00 | 55 | |
| 20260507201520 | 64 | 133 | 0.0 | 0.0 | 0.00 | 0.00 | 0.00 | 57 | |
| 20260507200920 | 64 | 133 | 0.0 | 0.0 | 0.00 | 0.00 | 0.00 | 57 | |
| 20260507200320 | 65 | 133 | 0.0 | 0.0 | 0.00 | 0.00 | 0.00 | 58 | |
| 20260507195720 | 65 | 133 | 0.0 | 5.0 | 0.00 | 0.00 | 0.00 | 56 | |
| 20260507195120 | 65 | 108 | 0.0 | 0.0 | 0.00 | 0.00 | 0.00 | 57 | |
| 20260507194921 | 65 | 108 | 0.0 | 0.0 | 0.00 | 0.00 | 0.00 | 57 | |
| 20260507194520 | 64 | 108 | 0.0 | 2.0 | 0.00 | 0.00 | 0.00 | 56 | |
| 20260507193920 | 64 | 108 | 2.0 | 6.0 | 0.00 | 0.00 | 0.00 | 56 | |
| 20260507193320 | 64 | 351 | 4.0 | 4.0 | 0.00 | 0.00 | 0.00 | 59 | |
| 20260507192921 | 64 | 351 | 0.0 | 0.0 | 0.00 | 0.00 | 0.00 | 62 | |
| 20260507192720 | 64 | 351 | 0.0 | 0.0 | 0.00 | 0.00 | 0.00 | 62 | |
| 20260507192120 | 65 | 351 | 0.0 | 0.0 | 0.00 | 0.00 | 0.00 | 62 | |
| 20260507191520 | 65 | 351 | 0.0 | 0.0 | 0.00 | 0.00 | 0.00 | 62 | |
| 20260507190920 | 65 | 351 | 0.0 | 0.0 | 0.00 | 0.00 | 0.00 | 62 | |
| 20260507190320 | 65 | 351 | 0.0 | 0.0 | 0.00 | 0.00 | 0.00 | 62 | |
| 20260507185720 | 65 | 351 | 0.0 | 0.0 | 0.00 | 0.00 | 0.00 | 62 | |
| 20260507185120 | 65 | 351 | 0.0 | 0.0 | 0.00 | 0.00 | 0.00 | 62 | |
| 20260507184921 | 65 | 351 | 0.0 | 0.0 | 0.00 | 0.00 | 0.00 | 62 | |
| 20260507184520 | 65 | 351 | 0.0 | 0.0 | 0.00 | 0.00 | 0.00 | 61 | |
| 20260507183920 | 65 | 351 | 0.0 | 0.0 | 0.00 | 0.00 | 0.00 | 61 | |
| 20260507183320 | 65 | 351 | 0.0 | 0.0 | 0.00 | 0.00 | 0.00 | 60 | |
| 20260507182720 | 65 | 351 | 0.0 | 0.0 | 0.00 | 0.00 | 0.00 | 60 | |
| 20260507182120 | 65 | 351 | 0.0 | 0.0 | 0.00 | 0.00 | 0.00 | 59 | |
| 20260507181520 | 66 | 351 | 0.0 | 0.0 | 0.00 | 0.00 | 0.00 | 59 | |
| 20260507180920 | 66 | 351 | 0.0 | 0.0 | 0.00 | 0.00 | 0.00 | 58 | |
| 20260507180320 | 66 | 351 | 0.0 | 0.0 | 0.00 | 0.00 | 0.00 | 58 | |
| 20260507175720 | 66 | 351 | 0.0 | 0.0 | 0.00 | 0.00 | 0.00 | 58 | |
| 20260507175120 | 66 | 351 | 0.0 | 0.0 | 0.00 | 0.00 | 0.00 | 58 | |
| 20260507174520 | 67 | 351 | 0.0 | 0.0 | 0.00 | 0.00 | 0.00 | 58 | |
| 20260507173920 | 67 | 351 | 0.0 | 0.0 | 0.00 | 0.00 | 0.00 | 58 | |
| 20260507173320 | 68 | 351 | 0.0 | 0.0 | 0.00 | 0.00 | 0.00 | 58 | |
| 20260507172720 | 68 | 351 | 0.0 | 0.0 | 0.00 | 0.00 | 0.00 | 58 | |
| 20260507172120 | 68 | 351 | 0.0 | 0.0 | 0.00 | 0.00 | 0.00 | 59 | |
| 20260507171520 | 69 | 351 | 0.0 | 0.0 | 0.00 | 0.00 | 0.00 | 59 | |
| 20260507170920 | 69 | 351 | 0.0 | 0.0 | 0.00 | 0.00 | 0.00 | 59 | |
| 20260507170320 | 69 | 351 | 0.0 | 0.0 | 0.00 | 0.00 | 0.00 | 62 | |
| 20260507165720 | 69 | 351 | 0.0 | 0.0 | 0.00 | 0.00 | 0.00 | 62 | |
| 20260507165120 | 69 | 351 | 0.0 | 0.0 | 0.00 | 0.00 | 0.00 | 62 | |
| 20260507164520 | 70 | 351 | 0.0 | 0.0 | 0.00 | 0.00 | 0.00 | 61 | |
| 20260507163920 | 70 | 351 | 0.0 | 0.0 | 0.00 | 0.00 | 0.00 | 60 | |
| 20260507163320 | 71 | 351 | 0.0 | 0.0 | 0.00 | 0.00 | 0.00 | 59 | |
| 20260507162921 | 71 | 351 | 0.0 | 0.0 | 0.00 | 0.00 | 0.00 | 57 | |
| 20260507162720 | 72 | 351 | 0.0 | 0.0 | 0.00 | 0.00 | 0.00 | 56 | |
| 20260507162120 | 73 | 351 | 0.0 | 0.0 | 0.00 | 0.00 | 0.00 | 55 | |
| 20260507161520 | 73 | 351 | 0.0 | 0.0 | 0.00 | 0.00 | 0.00 | 53 | |
| 20260507160920 | 74 | 351 | 0.0 | 0.0 | 0.00 | 0.00 | 0.00 | 52 | |
| 20260507160321 | 74 | 351 | 0.0 | 0.0 | 0.00 | 0.00 | 0.00 | 51 | |
| 20260507155720 | 74 | 351 | 0.0 | 0.0 | 0.00 | 0.00 | 0.00 | 49 | |
| 20260507155120 | 74 | 351 | 0.0 | 0.0 | 0.00 | 0.00 | 0.00 | 47 | |
| 20260507154921 | 74 | 351 | 0.0 | 0.0 | 0.00 | 0.00 | 0.00 | 46 | |
| 20260507154520 | 74 | 351 | 0.0 | 0.0 | 0.00 | 0.00 | 0.00 | 46 | |
| 20260507153920 | 74 | 351 | 0.0 | 0.0 | 0.00 | 0.00 | 0.00 | 47 | |
| 20260507153320 | 74 | 351 | 0.0 | 0.0 | 0.00 | 0.00 | 0.00 | 49 | |
| 20260507152921 | 74 | 351 | 0.0 | 0.0 | 0.00 | 0.00 | 0.00 | 49 | |
| 20260507152720 | 74 | 351 | 0.0 | 0.0 | 0.00 | 0.00 | 0.00 | 49 | |
| 20260507152120 | 75 | 351 | 0.0 | 0.0 | 0.00 | 0.00 | 0.00 | 49 | |
| 20260507151520 | 75 | 351 | 0.0 | 0.0 | 0.00 | 0.00 | 0.00 | 50 | |
| 20260507150920 | 73 | 351 | 0.0 | 0.0 | 0.00 | 0.00 | 0.00 | 52 | |
| 20260507150320 | 72 | 351 | 0.0 | 5.0 | 0.00 | 0.00 | 0.00 | 55 | |
| 20260507145720 | 71 | 322 | 0.0 | 0.0 | 0.00 | 0.00 | 0.00 | 55 | |
| 20260507145120 | 71 | 322 | 0.0 | 2.0 | 0.00 | 0.00 | 0.00 | 55 | |
| 20260507144520 | 71 | 322 | 0.0 | 0.0 | 0.00 | 0.00 | 0.00 | 55 | |
| 20260507143920 | 71 | 322 | 0.0 | 4.0 | 0.00 | 0.00 | 0.00 | 54 | |
| 20260507143320 | 71 | 293 | 0.0 | 0.0 | 0.00 | 0.00 | 0.00 | 54 | |
| 20260507142720 | 71 | 293 | 0.0 | 0.0 | 0.00 | 0.00 | 0.00 | 53 | |
| 20260507142120 | 71 | 293 | 0.0 | 0.0 | 0.00 | 0.00 | 0.00 | 52 | |
| 20260507141520 | 72 | 293 | 0.0 | 5.0 | 0.00 | 0.00 | 0.00 | 51 | |
| 20260507140920 | 72 | 306 | 0.0 | 4.0 | 0.00 | 0.00 | 0.00 | 50 | |
| 20260507140320 | 73 | 307 | 0.0 | 0.0 | 0.00 | 0.00 | 0.00 | 49 | |
| 20260507135720 | 73 | 288 | 3.0 | 5.0 | 0.00 | 0.00 | 0.00 | 49 | |
| 20260507135120 | 73 | 348 | 0.0 | 5.0 | 0.00 | 0.00 | 0.00 | 48 | |
| 20260507134922 | 73 | 11 | 0.0 | 0.0 | 0.00 | 0.00 | 0.00 | 49 | |
| 20260507134520 | 73 | 11 | 0.0 | 0.0 | 0.00 | 0.00 | 0.00 | 49 | |
| 20260507133920 | 74 | 11 | 0.0 | 0.0 | 0.00 | 0.00 | 0.00 | 48 | |
| 20260507133320 | 74 | 11 | 0.0 | 5.0 | 0.00 | 0.00 | 0.00 | 46 | |
| 20260507132922 | 75 | 351 | 0.0 | 5.0 | 0.00 | 0.00 | 0.00 | 46 | |
| 20260507132720 | 75 | 78 | 0.0 | 0.0 | 0.00 | 0.00 | 0.00 | 46 | |
| 20260507132120 | 74 | 78 | 0.0 | 4.0 | 0.00 | 0.00 | 0.00 | 48 | |
| 20260507131520 | 73 | 14 | 0.0 | 6.0 | 0.00 | 0.00 | 0.00 | 50 | |
| 20260507130920 | 72 | 11 | 0.0 | 0.0 | 0.00 | 0.00 | 0.00 | 51 | |
| 20260507130320 | 72 | 312 | 3.0 | 5.0 | 0.00 | 0.00 | 0.00 | 52 | |
| 20260507125720 | 72 | 286 | 4.0 | 5.0 | 0.00 | 0.00 | 0.00 | 52 | |
| 20260507125120 | 72 | 351 | 0.0 | 6.0 | 0.00 | 0.00 | 0.00 | 51 | |
| 20260507124922 | 72 | 309 | 5.0 | 5.0 | 0.00 | 0.00 | 0.00 | 51 | |
| 20260507124520 | 72 | 354 | 0.0 | 5.0 | 0.00 | 0.00 | 0.00 | 51 | |
| 20260507123920 | 72 | 151 | 0.0 | 4.0 | 0.00 | 0.00 | 0.00 | 52 | |
| 20260507123320 | 72 | 45 | 0.0 | 3.0 | 0.00 | 0.00 | 0.00 | 52 | |
| 20260507122720 | 72 | 26 | 0.0 | 2.0 | 0.00 | 0.00 | 0.00 | 49 | |
| 20260507122120 | 72 | 26 | 0.0 | 2.0 | 0.00 | 0.00 | 0.00 | 46 | |
| 20260507121521 | 72 | 26 | 0.0 | 5.0 | 0.00 | 0.00 | 0.00 | 43 | |
| 20260507120921 | 72 | 355 | 0.0 | 4.0 | 0.00 | 0.00 | 0.00 | 46 | |
| 20260507120320 | 71 | 9 | 0.0 | 0.0 | 0.00 | 0.00 | 0.00 | 49 | |
| 20260507115721 | 71 | 9 | 0.0 | 0.0 | 0.00 | 0.00 | 0.00 | 52 | |
| 20260507115121 | 71 | 9 | 0.0 | 0.0 | 0.00 | 0.00 | 0.00 | 52 | |
| 20260507114922 | 71 | 9 | 0.0 | 0.0 | 0.00 | 0.00 | 0.00 | 51 | |
| 20260507114521 | 71 | 9 | 0.0 | 3.0 | 0.00 | 0.00 | 0.00 | 51 | |
| 20260507113921 | 71 | 9 | 0.0 | 5.0 | 0.00 | 0.00 | 0.00 | 51 | |
| 20260507113321 | 71 | 347 | 0.0 | 0.0 | 0.00 | 0.00 | 0.00 | 53 | |
| 20260507112922 | 71 | 347 | 0.0 | 0.0 | 0.00 | 0.00 | 0.00 | 52 | |
| 20260507112721 | 71 | 347 | 0.0 | 0.0 | 0.00 | 0.00 | 0.00 | 52 | |
| 20260507112121 | 71 | 347 | 0.0 | 0.0 | 0.00 | 0.00 | 0.00 | 52 | |
| 20260507111521 | 71 | 347 | 0.0 | 3.0 | 0.00 | 0.00 | 0.00 | 52 | |
| 20260507110921 | 71 | 29 | 4.0 | 4.0 | 0.00 | 0.00 | 0.00 | 51 | |
| 20260507110321 | 71 | 26 | 0.0 | 3.0 | 0.00 | 0.00 | 0.00 | 49 | |
| 20260507105721 | 71 | 14 | 0.0 | 4.0 | 0.00 | 0.00 | 0.00 | 47 | |
| 20260507105121 | 71 | 288 | 0.0 | 0.0 | 0.00 | 0.00 | 0.00 | 51 | |
| 20260507104922 | 71 | 288 | 0.0 | 0.0 | 0.00 | 0.00 | 0.00 | 51 | |
| 20260507104521 | 71 | 288 | 0.0 | 0.0 | 0.00 | 0.00 | 0.00 | 52 | |
| 20260507103921 | 70 | 288 | 0.0 | 0.0 | 0.00 | 0.00 | 0.00 | 51 | |
| 20260507103321 | 71 | 288 | 0.0 | 0.0 | 0.00 | 0.00 | 0.00 | 52 | |
| 20260507102922 | 70 | 288 | 0.0 | 0.0 | 0.00 | 0.00 | 0.00 | 51 | |
| 20260507102721 | 70 | 288 | 0.0 | 0.0 | 0.00 | 0.00 | 0.00 | 51 | |
| 20260507102121 | 70 | 288 | 0.0 | 0.0 | 0.00 | 0.00 | 0.00 | 51 | |
| 20260507101521 | 70 | 288 | 0.0 | 0.0 | 0.00 | 0.00 | 0.00 | 51 | |
| 20260507100921 | 70 | 288 | 0.0 | 0.0 | 0.00 | 0.00 | 0.00 | 49 | |
| 20260507100321 | 70 | 288 | 0.0 | 0.0 | 0.00 | 0.00 | 0.00 | 49 | |
| 20260507095721 | 70 | 288 | 0.0 | 0.0 | 0.00 | 0.00 | 0.00 | 50 | |
| 20260507095121 | 70 | 358 | 0.0 | 5.0 | 0.00 | 0.00 | 0.00 | 51 | |
| 20260507094922 | 70 | 358 | 0.0 | 5.0 | 0.00 | 0.00 | 0.00 | 49 | |
| 20260507094521 | 70 | 358 | 2.0 | 3.0 | 0.00 | 0.00 | 0.00 | 49 | |
| 20260507093921 | 70 | 309 | 0.0 | 4.0 | 0.00 | 0.00 | 0.00 | 50 | |
| 20260507093321 | 70 | 309 | 0.0 | 3.0 | 0.00 | 0.00 | 0.00 | 51 | |
| 20260507092721 | 70 | 358 | 0.0 | 6.0 | 0.00 | 0.00 | 0.00 | 51 | |
| 20260507092121 | 70 | 331 | 0.0 | 0.0 | 0.00 | 0.00 | 0.00 | 51 | |
| 20260507091521 | 69 | 331 | 0.0 | 5.0 | 0.00 | 0.00 | 0.00 | 52 | |
| 20260507090921 | 69 | 2 | 0.0 | 0.0 | 0.00 | 0.00 | 0.00 | 51 | |
| 20260507090321 | 69 | 2 | 0.0 | 0.0 | 0.00 | 0.00 | 0.00 | 50 | |
| 20260507085721 | 68 | 2 | 0.0 | 0.0 | 0.00 | 0.00 | 0.00 | 49 | |
| 20260507085121 | 68 | 2 | 0.0 | 0.0 | 0.00 | 0.00 | 0.00 | 49 | |
| 20260507084922 | 68 | 2 | 0.0 | 0.0 | 0.00 | 0.00 | 0.00 | 48 | |
| 20260507084521 | 69 | 2 | 0.0 | 0.0 | 0.00 | 0.00 | 0.00 | 49 | |
| 20260507083921 | 69 | 2 | 0.0 | 0.0 | 0.00 | 0.00 | 0.00 | 49 | |
| 20260507083321 | 69 | 2 | 0.0 | 0.0 | 0.00 | 0.00 | 0.00 | 48 | |
| 20260507082922 | 69 | 2 | 0.0 | 0.0 | 0.00 | 0.00 | 0.00 | 47 | |
| 20260507082721 | 69 | 2 | 0.0 | 5.0 | 0.00 | 0.00 | 0.00 | 47 | |
| 20260507082121 | 69 | 344 | 0.0 | 0.0 | 0.00 | 0.00 | 0.00 | 49 | |
| 20260507081521 | 69 | 344 | 0.0 | 7.0 | 0.00 | 0.00 | 0.00 | 49 | |
| 20260507080921 | 69 | 305 | 0.0 | 3.0 | 0.00 | 0.00 | 0.00 | 47 | |
| 20260507080321 | 68 | 299 | 0.0 | 0.0 | 0.00 | 0.00 | 0.00 | 48 | |
| 20260507075721 | 68 | 299 | 0.0 | 0.0 | 0.00 | 0.00 | 0.00 | 49 | |
| 20260507075121 | 67 | 299 | 0.0 | 4.0 | 0.00 | 0.00 | 0.00 | 52 | |
| 20260507074923 | 67 | 315 | 3.0 | 4.0 | 0.00 | 0.00 | 0.00 | 51 | |
| 20260507074521 | 67 | 354 | 0.0 | 5.0 | 0.00 | 0.00 | 0.00 | 50 | |
| 20260507073921 | 67 | 49 | 0.0 | 0.0 | 0.00 | 0.00 | 0.00 | 41 | |
| 20260507073321 | 67 | 49 | 0.0 | 5.0 | 0.00 | 0.00 | 0.00 | 44 | |
| 20260507072922 | 67 | 305 | 0.0 | 4.0 | 0.00 | 0.00 | 0.00 | 47 | |
| 20260507072721 | 67 | 305 | 0.0 | 4.0 | 0.00 | 0.00 | 0.00 | 48 | |
| 20260507072121 | 67 | 288 | 0.0 | 0.0 | 0.00 | 0.00 | 0.00 | 50 | |
| 20260507071521 | 67 | 288 | 0.0 | 0.0 | 0.00 | 0.00 | 0.00 | 50 | |
| 20260507070921 | 67 | 288 | 0.0 | 4.0 | 0.00 | 0.00 | 0.00 | 51 | |
| 20260507070321 | 66 | 267 | 4.0 | 5.0 | 0.00 | 0.00 | 0.00 | 48 | |
| 20260507065721 | 65 | 139 | 0.0 | 1.0 | 0.00 | 0.00 | 0.00 | 44 | |
| 20260507065121 | 64 | 163 | 0.0 | 0.0 | 0.00 | 0.00 | 0.00 | 49 | |
| 20260507064922 | 64 | 163 | 0.0 | 0.0 | 0.00 | 0.00 | 0.00 | 54 | |
| 20260507064521 | 64 | 163 | 0.0 | 0.0 | 0.00 | 0.00 | 0.00 | 52 | |
| 20260507063921 | 64 | 163 | 0.0 | 0.0 | 0.00 | 0.00 | 0.00 | 53 | |
| 20260507063321 | 64 | 163 | 0.0 | 0.0 | 0.00 | 0.00 | 0.00 | 53 | |
| 20260507062922 | 64 | 163 | 0.0 | 0.0 | 0.00 | 0.00 | 0.00 | 51 | |
| 20260507062721 | 64 | 163 | 0.0 | 0.0 | 0.00 | 0.00 | 0.00 | 50 | |
| 20260507062121 | 63 | 163 | 0.0 | 0.0 | 0.00 | 0.00 | 0.00 | 51 | |
| 20260507061521 | 63 | 163 | 0.0 | 0.0 | 0.00 | 0.00 | 0.00 | 50 | |
| 20260507060921 | 63 | 163 | 0.0 | 0.0 | 0.00 | 0.00 | 0.00 | 51 | |
| 20260507060321 | 63 | 163 | 0.0 | 0.0 | 0.00 | 0.00 | 0.00 | 54 | |
| 20260507055721 | 63 | 163 | 0.0 | 0.0 | 0.00 | 0.00 | 0.00 | 51 | |
| 20260507055121 | 63 | 163 | 0.0 | 0.0 | 0.00 | 0.00 | 0.00 | 48 | |
| 20260507054922 | 63 | 163 | 0.0 | 0.0 | 0.00 | 0.00 | 0.00 | 48 | |
| 20260507054521 | 63 | 163 | 0.0 | 0.0 | 0.00 | 0.00 | 0.00 | 50 | |
| 20260507053921 | 62 | 163 | 0.0 | 0.0 | 0.00 | 0.00 | 0.00 | 53 | |
| 20260507053321 | 61 | 163 | 0.0 | 1.0 | 0.00 | 0.00 | 0.00 | 56 | |
| 20260507052922 | 61 | 163 | 0.0 | 0.0 | 0.00 | 0.00 | 0.00 | 60 | |
| 20260507052721 | 61 | 163 | 0.0 | 0.0 | 0.00 | 0.00 | 0.00 | 60 | |
| 20260507052121 | 60 | 163 | 0.0 | 0.0 | 0.00 | 0.00 | 0.00 | 60 | |
| 20260507051521 | 60 | 163 | 0.0 | 0.0 | 0.00 | 0.00 | 0.00 | 60 | |
| 20260507050921 | 60 | 163 | 0.0 | 0.0 | 0.00 | 0.00 | 0.00 | 60 | |
| 20260507050321 | 59 | 163 | 0.0 | 0.0 | 0.00 | 0.00 | 0.00 | 59 | |
| 20260507045721 | 59 | 163 | 0.0 | 0.0 | 0.00 | 0.00 | 0.00 | 58 | |
| 20260507045121 | 58 | 163 | 0.0 | 0.0 | 0.00 | 0.00 | 0.00 | 59 | |
| 20260507044922 | 58 | 163 | 0.0 | 0.0 | 0.00 | 0.00 | 0.00 | 58 | |
| 20260507044521 | 58 | 163 | 0.0 | 0.0 | 0.00 | 0.00 | 0.00 | 58 | |
| 20260507043921 | 58 | 163 | 0.0 | 0.0 | 0.00 | 0.00 | 0.00 | 58 | |
| 20260507043321 | 58 | 163 | 0.0 | 0.0 | 0.00 | 0.00 | 0.00 | 57 | |
| 20260507042721 | 57 | 163 | 0.0 | 0.0 | 0.00 | 0.00 | 0.00 | 57 | |
| 20260507042121 | 57 | 163 | 0.0 | 0.0 | 0.00 | 0.00 | 0.00 | 56 | |
| 20260507041521 | 57 | 163 | 0.0 | 0.0 | 0.00 | 0.00 | 0.00 | 56 | |
| 20260507040921 | 57 | 163 | 0.0 | 0.0 | 0.00 | 0.00 | 0.00 | 56 | |
| 20260507040321 | 57 | 163 | 0.0 | 0.0 | 0.00 | 0.00 | 0.00 | 55 | |
| 20260507035721 | 57 | 163 | 0.0 | 0.0 | 0.00 | 0.00 | 0.00 | 55 | |
| 20260507035121 | 57 | 163 | 0.0 | 0.0 | 0.00 | 0.00 | 0.00 | 55 | |
| 20260507034922 | 57 | 163 | 0.0 | 0.0 | 0.00 | 0.00 | 0.00 | 55 | |
| 20260507034521 | 57 | 163 | 0.0 | 0.0 | 0.00 | 0.00 | 0.00 | 55 | |
| 20260507033921 | 57 | 163 | 0.0 | 0.0 | 0.00 | 0.00 | 0.00 | 55 |